sensor_id;sensor_type;location;lat;lon;timestamp;P1;P2;P0
24012;PMS7003;12220;50.194;18.948;2023-03-15T00:01:58;7;7;6
24012;PMS7003;12220;50.194;18.948;2023-03-15T00:04:00;7;7;5
24012;PMS7003;12220;50.194;18.948;2023-03-15T00:06:05;6;6;4
24012;PMS7003;12220;50.194;18.948;2023-03-15T00:08:11;5;5;4
24012;PMS7003;12220;50.194;18.948;2023-03-15T00:10:13;4;4;3
24012;PMS7003;12220;50.194;18.948;2023-03-15T00:12:15;7;6;5
24012;PMS7003;12220;50.194;18.948;2023-03-15T00:14:16;6;6;5
24012;PMS7003;12220;50.194;18.948;2023-03-15T00:16:26;3;3;2
24012;PMS7003;12220;50.194;18.948;2023-03-15T00:18:28;3;3;2
24012;PMS7003;12220;50.194;18.948;2023-03-15T00:20:30;2;2;2
24012;PMS7003;12220;50.194;18.948;2023-03-15T00:22:31;3;3;2
24012;PMS7003;12220;50.194;18.948;2023-03-15T00:24:41;1;1;1
24012;PMS7003;12220;50.194;18.948;2023-03-15T00:26:43;1;1;1
24012;PMS7003;12220;50.194;18.948;2023-03-15T00:28:45;2;2;2
24012;PMS7003;12220;50.194;18.948;2023-03-15T00:30:46;2;2;2
24012;PMS7003;12220;50.194;18.948;2023-03-15T00:32:56;3;3;3
24012;PMS7003;12220;50.194;18.948;2023-03-15T00:34:58;3;3;3
24012;PMS7003;12220;50.194;18.948;2023-03-15T00:36:59;5;5;4
24012;PMS7003;12220;50.194;18.948;2023-03-15T00:39:01;4;4;3
24012;PMS7003;12220;50.194;18.948;2023-03-15T00:41:12;4;3;2
24012;PMS7003;12220;50.194;18.948;2023-03-15T00:43:15;2;2;2
24012;PMS7003;12220;50.194;18.948;2023-03-15T00:45:18;2;2;2
24012;PMS7003;12220;50.194;18.948;2023-03-15T00:47:21;2;2;2
24012;PMS7003;12220;50.194;18.948;2023-03-15T00:49:26;2;2;2
24012;PMS7003;12220;50.194;18.948;2023-03-15T00:51:27;0;0;0
24012;PMS7003;12220;50.194;18.948;2023-03-15T00:53:29;2;2;1
24012;PMS7003;12220;50.194;18.948;2023-03-15T00:55:31;3;2;2
24012;PMS7003;12220;50.194;18.948;2023-03-15T00:57:43;1;1;1
24012;PMS7003;12220;50.194;18.948;2023-03-15T00:59:46;2;2;2
24012;PMS7003;12220;50.194;18.948;2023-03-15T01:01:52;2;2;2
24012;PMS7003;12220;50.194;18.948;2023-03-15T01:03:54;3;3;2
24012;PMS7003;12220;50.194;18.948;2023-03-15T01:05:57;5;5;3
24012;PMS7003;12220;50.194;18.948;2023-03-15T01:07:59;3;3;3
24012;PMS7003;12220;50.194;18.948;2023-03-15T01:10:03;3;3;2
24012;PMS7003;12220;50.194;18.948;2023-03-15T01:12:07;4;4;3
24012;PMS7003;12220;50.194;18.948;2023-03-15T01:14:12;4;4;3
24012;PMS7003;12220;50.194;18.948;2023-03-15T01:16:14;4;4;3
24012;PMS7003;12220;50.194;18.948;2023-03-15T01:18:15;5;5;5
24012;PMS7003;12220;50.194;18.948;2023-03-15T01:20:17;3;3;3
24012;PMS7003;12220;50.194;18.948;2023-03-15T01:22:27;2;2;2
24012;PMS7003;12220;50.194;18.948;2023-03-15T01:24:29;2;2;2
24012;PMS7003;12220;50.194;18.948;2023-03-15T01:26:30;4;4;4
24012;PMS7003;12220;50.194;18.948;2023-03-15T01:28:32;5;5;4
24012;PMS7003;12220;50.194;18.948;2023-03-15T01:32:50;4;4;3
24012;PMS7003;12220;50.194;18.948;2023-03-15T01:34:52;6;6;5
24012;PMS7003;12220;50.194;18.948;2023-03-15T01:36:53;2;2;2
24012;PMS7003;12220;50.194;18.948;2023-03-15T01:38:57;3;2;2
24012;PMS7003;12220;50.194;18.948;2023-03-15T01:40:59;6;6;5
24012;PMS7003;12220;50.194;18.948;2023-03-15T01:47:26;4;4;4
24012;PMS7003;12220;50.194;18.948;2023-03-15T01:49:34;5;5;4
24012;PMS7003;12220;50.194;18.948;2023-03-15T01:51:36;5;5;4
24012;PMS7003;12220;50.194;18.948;2023-03-15T01:53:43;6;6;5
24012;PMS7003;12220;50.194;18.948;2023-03-15T01:55:49;4;4;3
24012;PMS7003;12220;50.194;18.948;2023-03-15T01:57:53;3;3;2
24012;PMS7003;12220;50.194;18.948;2023-03-15T02:00:03;7;7;6
24012;PMS7003;12220;50.194;18.948;2023-03-15T02:02:11;6;5;4
24012;PMS7003;12220;50.194;18.948;2023-03-15T02:04:17;6;6;4
24012;PMS7003;12220;50.194;18.948;2023-03-15T02:06:24;5;4;3
24012;PMS7003;12220;50.194;18.948;2023-03-15T02:08:28;6;6;5
24012;PMS7003;12220;50.194;18.948;2023-03-15T02:10:34;5;4;3
24012;PMS7003;12220;50.194;18.948;2023-03-15T02:12:44;2;2;2
24012;PMS7003;12220;50.194;18.948;2023-03-15T02:14:48;6;6;5
24012;PMS7003;12220;50.194;18.948;2023-03-15T02:16:59;3;3;3
24012;PMS7003;12220;50.194;18.948;2023-03-15T02:19:00;4;4;3
24012;PMS7003;12220;50.194;18.948;2023-03-15T02:21:07;3;3;2
24012;PMS7003;12220;50.194;18.948;2023-03-15T02:23:17;7;4;3
24012;PMS7003;12220;50.194;18.948;2023-03-15T02:25:25;3;3;3
24012;PMS7003;12220;50.194;18.948;2023-03-15T02:27:35;2;2;2
24012;PMS7003;12220;50.194;18.948;2023-03-15T02:29:37;4;4;4
24012;PMS7003;12220;50.194;18.948;2023-03-15T02:31:39;4;4;3
24012;PMS7003;12220;50.194;18.948;2023-03-15T02:33:45;1;1;1
24012;PMS7003;12220;50.194;18.948;2023-03-15T02:35:50;3;3;2
24012;PMS7003;12220;50.194;18.948;2023-03-15T02:37:52;2;1;1
24012;PMS7003;12220;50.194;18.948;2023-03-15T02:39:54;2;2;2
24012;PMS7003;12220;50.194;18.948;2023-03-15T02:41:56;4;4;3
24012;PMS7003;12220;50.194;18.948;2023-03-15T02:44:07;5;4;3
24012;PMS7003;12220;50.194;18.948;2023-03-15T02:46:14;5;3;3
24012;PMS7003;12220;50.194;18.948;2023-03-15T02:48:17;3;3;2
24012;PMS7003;12220;50.194;18.948;2023-03-15T02:50:20;4;0;0
24012;PMS7003;12220;50.194;18.948;2023-03-15T02:52:22;4;4;3
24012;PMS7003;12220;50.194;18.948;2023-03-15T02:54:24;4;2;2
24012;PMS7003;12220;50.194;18.948;2023-03-15T02:56:26;5;5;4
24012;PMS7003;12220;50.194;18.948;2023-03-15T02:58:27;0;0;0
24012;PMS7003;12220;50.194;18.948;2023-03-15T03:00:37;5;5;4
24012;PMS7003;12220;50.194;18.948;2023-03-15T03:02:43;5;3;3
24012;PMS7003;12220;50.194;18.948;2023-03-15T03:04:46;5;5;3
24012;PMS7003;12220;50.194;18.948;2023-03-15T03:06:48;3;3;2
24012;PMS7003;12220;50.194;18.948;2023-03-15T03:08:52;2;2;1
24012;PMS7003;12220;50.194;18.948;2023-03-15T03:10:53;3;3;3
24012;PMS7003;12220;50.194;18.948;2023-03-15T03:12:55;5;5;4
24012;PMS7003;12220;50.194;18.948;2023-03-15T03:14:57;3;3;2
24012;PMS7003;12220;50.194;18.948;2023-03-15T03:17:07;5;4;3
24012;PMS7003;12220;50.194;18.948;2023-03-15T03:19:09;7;5;3
24012;PMS7003;12220;50.194;18.948;2023-03-15T03:21:14;6;4;3
24012;PMS7003;12220;50.194;18.948;2023-03-15T03:23:16;5;5;4
24012;PMS7003;12220;50.194;18.948;2023-03-15T03:25:22;4;4;3
24012;PMS7003;12220;50.194;18.948;2023-03-15T03:27:26;7;5;4
24012;PMS7003;12220;50.194;18.948;2023-03-15T03:29:28;10;4;2
24012;PMS7003;12220;50.194;18.948;2023-03-15T03:31:29;6;6;5
24012;PMS7003;12220;50.194;18.948;2023-03-15T03:33:37;4;4;4
24012;PMS7003;12220;50.194;18.948;2023-03-15T03:35:39;7;4;3
24012;PMS7003;12220;50.194;18.948;2023-03-15T03:37:41;6;5;3
24012;PMS7003;12220;50.194;18.948;2023-03-15T03:39:43;8;7;5
24012;PMS7003;12220;50.194;18.948;2023-03-15T03:41:52;6;5;3
24012;PMS7003;12220;50.194;18.948;2023-03-15T03:43:54;4;4;3
24012;PMS7003;12220;50.194;18.948;2023-03-15T03:45:55;6;6;3
24012;PMS7003;12220;50.194;18.948;2023-03-15T03:47:59;6;5;3
24012;PMS7003;12220;50.194;18.948;2023-03-15T03:50:08;5;5;4
24012;PMS7003;12220;50.194;18.948;2023-03-15T03:52:11;6;5;4
24012;PMS7003;12220;50.194;18.948;2023-03-15T03:54:12;8;7;5
24012;PMS7003;12220;50.194;18.948;2023-03-15T03:56:14;6;5;4
24012;PMS7003;12220;50.194;18.948;2023-03-15T03:58:22;6;5;3
24012;PMS7003;12220;50.194;18.948;2023-03-15T04:00:24;8;7;4
24012;PMS7003;12220;50.194;18.948;2023-03-15T04:02:25;6;5;4
24012;PMS7003;12220;50.194;18.948;2023-03-15T04:04:31;8;6;4
24012;PMS7003;12220;50.194;18.948;2023-03-15T04:06:37;7;6;3
24012;PMS7003;12220;50.194;18.948;2023-03-15T04:08:39;4;4;3
24012;PMS7003;12220;50.194;18.948;2023-03-15T04:10:41;6;6;4
24012;PMS7003;12220;50.194;18.948;2023-03-15T04:12:42;5;5;3
24012;PMS7003;12220;50.194;18.948;2023-03-15T04:14:52;10;4;4
24012;PMS7003;12220;50.194;18.948;2023-03-15T04:16:54;8;8;5
24012;PMS7003;12220;50.194;18.948;2023-03-15T04:18:55;4;4;3
24012;PMS7003;12220;50.194;18.948;2023-03-15T04:20:57;9;7;6
24012;PMS7003;12220;50.194;18.948;2023-03-15T04:23:07;8;7;5
24012;PMS7003;12220;50.194;18.948;2023-03-15T04:25:09;8;8;4
24012;PMS7003;12220;50.194;18.948;2023-03-15T04:27:11;4;4;3
24012;PMS7003;12220;50.194;18.948;2023-03-15T04:29:14;10;6;4
24012;PMS7003;12220;50.194;18.948;2023-03-15T04:31:23;6;5;2
24012;PMS7003;12220;50.194;18.948;2023-03-15T04:33:27;8;4;3
24012;PMS7003;12220;50.194;18.948;2023-03-15T04:35:30;5;5;4
24012;PMS7003;12220;50.194;18.948;2023-03-15T04:37:34;7;7;5
24012;PMS7003;12220;50.194;18.948;2023-03-15T04:39:38;6;5;4
24012;PMS7003;12220;50.194;18.948;2023-03-15T04:41:42;8;8;6
24012;PMS7003;12220;50.194;18.948;2023-03-15T04:43:44;8;8;7
24012;PMS7003;12220;50.194;18.948;2023-03-15T04:45:45;9;8;5
24012;PMS7003;12220;50.194;18.948;2023-03-15T04:47:53;6;5;4
24012;PMS7003;12220;50.194;18.948;2023-03-15T04:49:55;5;3;2
24012;PMS7003;12220;50.194;18.948;2023-03-15T04:51:56;4;4;3
24012;PMS7003;12220;50.194;18.948;2023-03-15T04:53:58;7;6;5
24012;PMS7003;12220;50.194;18.948;2023-03-15T04:56:08;10;7;5
24012;PMS7003;12220;50.194;18.948;2023-03-15T04:58:09;6;6;5
24012;PMS7003;12220;50.194;18.948;2023-03-15T05:00:11;12;9;4
24012;PMS7003;12220;50.194;18.948;2023-03-15T05:02:13;6;6;4
24012;PMS7003;12220;50.194;18.948;2023-03-15T05:04:23;6;6;4
24012;PMS7003;12220;50.194;18.948;2023-03-15T05:06:27;3;3;3
24012;PMS7003;12220;50.194;18.948;2023-03-15T05:08:29;7;7;6
24012;PMS7003;12220;50.194;18.948;2023-03-15T05:10:31;10;8;7
24012;PMS7003;12220;50.194;18.948;2023-03-15T05:12:38;10;10;7
24012;PMS7003;12220;50.194;18.948;2023-03-15T05:14:40;7;5;3
24012;PMS7003;12220;50.194;18.948;2023-03-15T05:16:41;6;6;5
24012;PMS7003;12220;50.194;18.948;2023-03-15T05:18:43;7;7;5
24012;PMS7003;12220;50.194;18.948;2023-03-15T05:20:53;10;7;4
24012;PMS7003;12220;50.194;18.948;2023-03-15T05:22:57;8;7;6
24012;PMS7003;12220;50.194;18.948;2023-03-15T05:25:00;7;7;6
24012;PMS7003;12220;50.194;18.948;2023-03-15T05:27:02;8;7;6
24012;PMS7003;12220;50.194;18.948;2023-03-15T05:29:08;5;5;4
24012;PMS7003;12220;50.194;18.948;2023-03-15T05:31:09;14;9;6
24012;PMS7003;12220;50.194;18.948;2023-03-15T05:33:11;4;4;2
24012;PMS7003;12220;50.194;18.948;2023-03-15T05:35:13;9;9;6
24012;PMS7003;12220;50.194;18.948;2023-03-15T05:37:23;9;9;6
24012;PMS7003;12220;50.194;18.948;2023-03-15T05:39:24;10;10;6
24012;PMS7003;12220;50.194;18.948;2023-03-15T05:41:26;8;7;5
24012;PMS7003;12220;50.194;18.948;2023-03-15T05:43:27;7;7;5
24012;PMS7003;12220;50.194;18.948;2023-03-15T05:45:38;5;5;3
24012;PMS7003;12220;50.194;18.948;2023-03-15T05:47:40;6;6;5
24012;PMS7003;12220;50.194;18.948;2023-03-15T05:49:42;4;4;3
24012;PMS7003;12220;50.194;18.948;2023-03-15T05:51:44;10;7;5
24012;PMS7003;12220;50.194;18.948;2023-03-15T05:53:53;10;7;4
24012;PMS7003;12220;50.194;18.948;2023-03-15T05:55:54;4;4;3
24012;PMS7003;12220;50.194;18.948;2023-03-15T05:57:56;9;7;5
24012;PMS7003;12220;50.194;18.948;2023-03-15T05:59:57;7;7;5
24012;PMS7003;12220;50.194;18.948;2023-03-15T06:02:08;6;6;5
24012;PMS7003;12220;50.194;18.948;2023-03-15T06:04:10;4;4;2
24012;PMS7003;12220;50.194;18.948;2023-03-15T06:06:11;7;7;6
24012;PMS7003;12220;50.194;18.948;2023-03-15T06:08:13;7;6;4
24012;PMS7003;12220;50.194;18.948;2023-03-15T06:10:23;7;7;6
24012;PMS7003;12220;50.194;18.948;2023-03-15T06:12:25;9;9;5
24012;PMS7003;12220;50.194;18.948;2023-03-15T06:14:26;8;6;4
24012;PMS7003;12220;50.194;18.948;2023-03-15T06:16:28;5;3;2
24012;PMS7003;12220;50.194;18.948;2023-03-15T06:18:38;6;3;3
24012;PMS7003;12220;50.194;18.948;2023-03-15T06:20:40;7;5;4
24012;PMS7003;12220;50.194;18.948;2023-03-15T06:22:41;5;5;4
24012;PMS7003;12220;50.194;18.948;2023-03-15T06:24:43;2;1;1
24012;PMS7003;12220;50.194;18.948;2023-03-15T06:26:53;9;5;3
24012;PMS7003;12220;50.194;18.948;2023-03-15T06:28:55;2;2;1
24012;PMS7003;12220;50.194;18.948;2023-03-15T06:30:57;6;5;3
24012;PMS7003;12220;50.194;18.948;2023-03-15T06:32:58;7;6;4
24012;PMS7003;12220;50.194;18.948;2023-03-15T06:35:08;5;4;4
24012;PMS7003;12220;50.194;18.948;2023-03-15T06:37:10;3;3;2
24012;PMS7003;12220;50.194;18.948;2023-03-15T06:39:13;3;3;2
24012;PMS7003;12220;50.194;18.948;2023-03-15T06:41:16;3;3;2
24012;PMS7003;12220;50.194;18.948;2023-03-15T06:43:23;3;3;2
24012;PMS7003;12220;50.194;18.948;2023-03-15T06:45:25;6;5;5
24012;PMS7003;12220;50.194;18.948;2023-03-15T06:47:27;3;1;1
24012;PMS7003;12220;50.194;18.948;2023-03-15T06:49:29;4;3;2
24012;PMS7003;12220;50.194;18.948;2023-03-15T06:51:38;5;4;4
24012;PMS7003;12220;50.194;18.948;2023-03-15T06:53:44;3;3;2
24012;PMS7003;12220;50.194;18.948;2023-03-15T06:55:46;5;3;3
24012;PMS7003;12220;50.194;18.948;2023-03-15T06:57:50;2;2;2
24012;PMS7003;12220;50.194;18.948;2023-03-15T06:59:53;1;1;1
24012;PMS7003;12220;50.194;18.948;2023-03-15T07:01:56;4;2;1
24012;PMS7003;12220;50.194;18.948;2023-03-15T07:03:57;5;3;2
24012;PMS7003;12220;50.194;18.948;2023-03-15T07:05:59;3;3;2
24012;PMS7003;12220;50.194;18.948;2023-03-15T07:08:08;3;3;3
24012;PMS7003;12220;50.194;18.948;2023-03-15T07:10:10;0;0;0
24012;PMS7003;12220;50.194;18.948;2023-03-15T07:12:12;3;3;2
24012;PMS7003;12220;50.194;18.948;2023-03-15T07:14:13;2;2;2
24012;PMS7003;12220;50.194;18.948;2023-03-15T07:16:24;2;2;1
24012;PMS7003;12220;50.194;18.948;2023-03-15T07:18:26;2;2;1
24012;PMS7003;12220;50.194;18.948;2023-03-15T07:20:27;3;2;2
24012;PMS7003;12220;50.194;18.948;2023-03-15T07:22:29;2;2;1
24012;PMS7003;12220;50.194;18.948;2023-03-15T07:24:39;2;2;2
24012;PMS7003;12220;50.194;18.948;2023-03-15T07:26:40;3;3;2
24012;PMS7003;12220;50.194;18.948;2023-03-15T07:28:42;5;2;2
24012;PMS7003;12220;50.194;18.948;2023-03-15T07:33:00;3;3;2
24012;PMS7003;12220;50.194;18.948;2023-03-15T07:35:01;6;2;2
24012;PMS7003;12220;50.194;18.948;2023-03-15T07:37:03;8;3;3
24012;PMS7003;12220;50.194;18.948;2023-03-15T07:39:04;1;1;0
24012;PMS7003;12220;50.194;18.948;2023-03-15T07:41:09;2;1;1
24012;PMS7003;12220;50.194;18.948;2023-03-15T07:43:11;2;2;1
24012;PMS7003;12220;50.194;18.948;2023-03-15T07:45:13;2;2;1
24012;PMS7003;12220;50.194;18.948;2023-03-15T07:47:15;4;2;1
24012;PMS7003;12220;50.194;18.948;2023-03-15T07:49:24;5;5;2
24012;PMS7003;12220;50.194;18.948;2023-03-15T07:51:26;4;3;3
24012;PMS7003;12220;50.194;18.948;2023-03-15T07:53:27;6;2;2
24012;PMS7003;12220;50.194;18.948;2023-03-15T07:55:30;2;2;1
24012;PMS7003;12220;50.194;18.948;2023-03-15T07:57:39;5;2;2
24012;PMS7003;12220;50.194;18.948;2023-03-15T07:59:40;2;1;1
24012;PMS7003;12220;50.194;18.948;2023-03-15T08:01:42;4;3;3
24012;PMS7003;12220;50.194;18.948;2023-03-15T08:03:43;4;4;3
24012;PMS7003;12220;50.194;18.948;2023-03-15T08:05:54;4;3;2
24012;PMS7003;12220;50.194;18.948;2023-03-15T08:07:55;6;6;3
24012;PMS7003;12220;50.194;18.948;2023-03-15T08:09:57;3;3;2
24012;PMS7003;12220;50.194;18.948;2023-03-15T08:11:59;4;4;3
24012;PMS7003;12220;50.194;18.948;2023-03-15T08:14:09;6;4;3
24012;PMS7003;12220;50.194;18.948;2023-03-15T08:16:10;3;3;3
24012;PMS7003;12220;50.194;18.948;2023-03-15T08:18:12;4;4;3
24012;PMS7003;12220;50.194;18.948;2023-03-15T08:20:14;5;5;4
24012;PMS7003;12220;50.194;18.948;2023-03-15T08:22:24;3;3;2
24012;PMS7003;12220;50.194;18.948;2023-03-15T08:24:26;3;3;3
24012;PMS7003;12220;50.194;18.948;2023-03-15T08:26:27;6;3;3
24012;PMS7003;12220;50.194;18.948;2023-03-15T08:28:29;6;4;4
24012;PMS7003;12220;50.194;18.948;2023-03-15T08:30:39;3;1;1
24012;PMS7003;12220;50.194;18.948;2023-03-15T08:32:42;3;3;3
24012;PMS7003;12220;50.194;18.948;2023-03-15T08:34:45;3;3;2
24012;PMS7003;12220;50.194;18.948;2023-03-15T08:36:46;2;2;2
24012;PMS7003;12220;50.194;18.948;2023-03-15T08:38:54;2;2;2
24012;PMS7003;12220;50.194;18.948;2023-03-15T08:40:56;2;2;1
24012;PMS7003;12220;50.194;18.948;2023-03-15T08:42:58;6;4;3
24012;PMS7003;12220;50.194;18.948;2023-03-15T08:44:59;3;3;2
24012;PMS7003;12220;50.194;18.948;2023-03-15T08:47:09;6;4;4
24012;PMS7003;12220;50.194;18.948;2023-03-15T08:49:11;3;3;2
24012;PMS7003;12220;50.194;18.948;2023-03-15T08:51:13;5;5;4
24012;PMS7003;12220;50.194;18.948;2023-03-15T08:53:14;3;3;3
24012;PMS7003;12220;50.194;18.948;2023-03-15T08:55:24;5;2;1
24012;PMS7003;12220;50.194;18.948;2023-03-15T08:57:25;2;2;1
24012;PMS7003;12220;50.194;18.948;2023-03-15T08:59:30;5;5;4
24012;PMS7003;12220;50.194;18.948;2023-03-15T09:01:32;3;2;2
24012;PMS7003;12220;50.194;18.948;2023-03-15T09:03:39;4;4;3
24012;PMS7003;12220;50.194;18.948;2023-03-15T09:05:42;4;3;2
24012;PMS7003;12220;50.194;18.948;2023-03-15T09:07:44;3;3;2
24012;PMS7003;12220;50.194;18.948;2023-03-15T09:09:46;3;3;2
24012;PMS7003;12220;50.194;18.948;2023-03-15T09:11:54;5;5;4
24012;PMS7003;12220;50.194;18.948;2023-03-15T09:13:56;6;3;2
24012;PMS7003;12220;50.194;18.948;2023-03-15T09:15:57;2;2;2
24012;PMS7003;12220;50.194;18.948;2023-03-15T09:17:59;5;4;3
24012;PMS7003;12220;50.194;18.948;2023-03-15T09:20:10;3;3;3
24012;PMS7003;12220;50.194;18.948;2023-03-15T09:22:31;3;3;3
24012;PMS7003;12220;50.194;18.948;2023-03-15T09:24:32;3;3;3
24012;PMS7003;12220;50.194;18.948;2023-03-15T09:26:34;3;3;3
24012;PMS7003;12220;50.194;18.948;2023-03-15T09:28:35;4;4;4
24012;PMS7003;12220;50.194;18.948;2023-03-15T09:30:46;1;1;1
24012;PMS7003;12220;50.194;18.948;2023-03-15T09:32:47;4;4;3
24012;PMS7003;12220;50.194;18.948;2023-03-15T09:34:50;3;3;2
24012;PMS7003;12220;50.194;18.948;2023-03-15T09:36:52;5;4;3
24012;PMS7003;12220;50.194;18.948;2023-03-15T09:39:01;2;2;2
24012;PMS7003;12220;50.194;18.948;2023-03-15T09:41:03;3;2;2
24012;PMS7003;12220;50.194;18.948;2023-03-15T09:47:34;3;1;1
24012;PMS7003;12220;50.194;18.948;2023-03-15T09:52:03;2;2;2
24012;PMS7003;12220;50.194;18.948;2023-03-15T09:54:22;0;0;0
24012;PMS7003;12220;50.194;18.948;2023-03-15T09:56:43;2;2;1
24012;PMS7003;12220;50.194;18.948;2023-03-15T09:59:03;1;1;1
24012;PMS7003;12220;50.194;18.948;2023-03-15T10:01:07;0;0;0
24012;PMS7003;12220;50.194;18.948;2023-03-15T10:07:37;1;0;0
24012;PMS7003;12220;50.194;18.948;2023-03-15T10:09:40;0;0;0
24012;PMS7003;12220;50.194;18.948;2023-03-15T10:11:45;1;1;1
24012;PMS7003;12220;50.194;18.948;2023-03-15T10:13:59;0;0;0
24012;PMS7003;12220;50.194;18.948;2023-03-15T10:18:26;0;0;0
24012;PMS7003;12220;50.194;18.948;2023-03-15T10:20:35;5;2;1
24012;PMS7003;12220;50.194;18.948;2023-03-15T10:22:51;1;1;1
24012;PMS7003;12220;50.194;18.948;2023-03-15T10:29:46;4;3;2
24012;PMS7003;12220;50.194;18.948;2023-03-15T10:31:51;2;2;2
24012;PMS7003;12220;50.194;18.948;2023-03-15T10:33:54;1;1;1
24012;PMS7003;12220;50.194;18.948;2023-03-15T10:35:57;0;0;0
24012;PMS7003;12220;50.194;18.948;2023-03-15T10:38:00;1;1;1
24012;PMS7003;12220;50.194;18.948;2023-03-15T10:40:02;1;0;0
24012;PMS7003;12220;50.194;18.948;2023-03-15T10:42:21;1;1;1
24012;PMS7003;12220;50.194;18.948;2023-03-15T10:44:23;2;2;1
24012;PMS7003;12220;50.194;18.948;2023-03-15T10:46:26;2;1;1
24012;PMS7003;12220;50.194;18.948;2023-03-15T10:48:38;0;0;0
24012;PMS7003;12220;50.194;18.948;2023-03-15T10:50:41;1;1;0
24012;PMS7003;12220;50.194;18.948;2023-03-15T10:52:42;2;2;2
24012;PMS7003;12220;50.194;18.948;2023-03-15T10:54:45;0;0;0
24012;PMS7003;12220;50.194;18.948;2023-03-15T10:56:59;1;1;1
24012;PMS7003;12220;50.194;18.948;2023-03-15T10:59:17;2;1;1
24012;PMS7003;12220;50.194;18.948;2023-03-15T11:01:35;3;0;0
24012;PMS7003;12220;50.194;18.948;2023-03-15T11:03:37;0;0;0
24012;PMS7003;12220;50.194;18.948;2023-03-15T11:05:42;3;1;1
24012;PMS7003;12220;50.194;18.948;2023-03-15T11:09:59;2;1;1
24012;PMS7003;12220;50.194;18.948;2023-03-15T11:12:15;2;2;1
24012;PMS7003;12220;50.194;18.948;2023-03-15T11:14:34;1;0;0
24012;PMS7003;12220;50.194;18.948;2023-03-15T11:16:38;3;1;1
24012;PMS7003;12220;50.194;18.948;2023-03-15T11:20:54;1;1;1
24012;PMS7003;12220;50.194;18.948;2023-03-15T11:22:57;3;1;0
24012;PMS7003;12220;50.194;18.948;2023-03-15T11:25:13;3;2;1
24012;PMS7003;12220;50.194;18.948;2023-03-15T11:27:16;1;1;1
24012;PMS7003;12220;50.194;18.948;2023-03-15T11:29:27;4;1;1
24012;PMS7003;12220;50.194;18.948;2023-03-15T11:31:33;3;3;1
24012;PMS7003;12220;50.194;18.948;2023-03-15T11:33:37;0;0;0
24012;PMS7003;12220;50.194;18.948;2023-03-15T11:35:48;0;0;0
24012;PMS7003;12220;50.194;18.948;2023-03-15T11:37:53;1;1;1
24012;PMS7003;12220;50.194;18.948;2023-03-15T11:40:04;2;1;1
24012;PMS7003;12220;50.194;18.948;2023-03-15T11:42:13;2;1;1
24012;PMS7003;12220;50.194;18.948;2023-03-15T11:44:24;1;1;0
24012;PMS7003;12220;50.194;18.948;2023-03-15T11:46:38;1;1;1
24012;PMS7003;12220;50.194;18.948;2023-03-15T11:51:11;2;2;1
24012;PMS7003;12220;50.194;18.948;2023-03-15T11:53:14;1;1;1
24012;PMS7003;12220;50.194;18.948;2023-03-15T11:55:23;0;0;0
24012;PMS7003;12220;50.194;18.948;2023-03-15T11:59:42;2;1;1
24012;PMS7003;12220;50.194;18.948;2023-03-15T12:01:57;1;1;1
24012;PMS7003;12220;50.194;18.948;2023-03-15T12:06:35;6;2;2
24012;PMS7003;12220;50.194;18.948;2023-03-15T12:08:42;0;0;0
24012;PMS7003;12220;50.194;18.948;2023-03-15T12:10:48;1;1;1
24012;PMS7003;12220;50.194;18.948;2023-03-15T12:15:05;4;1;1
24012;PMS7003;12220;50.194;18.948;2023-03-15T12:19:36;4;1;1
24012;PMS7003;12220;50.194;18.948;2023-03-15T12:21:39;1;1;1
24012;PMS7003;12220;50.194;18.948;2023-03-15T12:23:56;1;1;1
24012;PMS7003;12220;50.194;18.948;2023-03-15T12:26:03;2;2;2
24012;PMS7003;12220;50.194;18.948;2023-03-15T12:28:18;6;3;2
24012;PMS7003;12220;50.194;18.948;2023-03-15T12:30:29;2;1;1
24012;PMS7003;12220;50.194;18.948;2023-03-15T12:32:40;2;2;2
24012;PMS7003;12220;50.194;18.948;2023-03-15T12:34:56;2;2;1
24012;PMS7003;12220;50.194;18.948;2023-03-15T12:37:19;3;1;0
24012;PMS7003;12220;50.194;18.948;2023-03-15T12:41:43;2;2;2
24012;PMS7003;12220;50.194;18.948;2023-03-15T12:43:46;3;2;1
24012;PMS7003;12220;50.194;18.948;2023-03-15T12:45:51;2;1;1
24012;PMS7003;12220;50.194;18.948;2023-03-15T12:52:33;1;1;1
24012;PMS7003;12220;50.194;18.948;2023-03-15T12:54:43;3;1;1
24012;PMS7003;12220;50.194;18.948;2023-03-15T12:56:53;2;2;2
24012;PMS7003;12220;50.194;18.948;2023-03-15T12:59:04;5;1;1
24012;PMS7003;12220;50.194;18.948;2023-03-15T13:01:21;1;1;1
24012;PMS7003;12220;50.194;18.948;2023-03-15T13:03:25;2;2;2
24012;PMS7003;12220;50.194;18.948;2023-03-15T13:05:29;2;2;2
24012;PMS7003;12220;50.194;18.948;2023-03-15T13:07:42;1;1;1
24012;PMS7003;12220;50.194;18.948;2023-03-15T13:12:07;2;2;2
24012;PMS7003;12220;50.194;18.948;2023-03-15T13:16:45;2;1;1
24012;PMS7003;12220;50.194;18.948;2023-03-15T13:21:27;3;1;1
24012;PMS7003;12220;50.194;18.948;2023-03-15T13:23:48;0;0;0
24012;PMS7003;12220;50.194;18.948;2023-03-15T13:30:29;2;2;2
24012;PMS7003;12220;50.194;18.948;2023-03-15T13:32:39;2;2;1
24012;PMS7003;12220;50.194;18.948;2023-03-15T13:34:41;2;2;1
24012;PMS7003;12220;50.194;18.948;2023-03-15T13:36:58;1;1;1
24012;PMS7003;12220;50.194;18.948;2023-03-15T13:39:01;2;1;1
24012;PMS7003;12220;50.194;18.948;2023-03-15T13:41:15;1;1;1
24012;PMS7003;12220;50.194;18.948;2023-03-15T13:43:26;3;3;2
24012;PMS7003;12220;50.194;18.948;2023-03-15T13:45:36;4;2;2
24012;PMS7003;12220;50.194;18.948;2023-03-15T13:47:44;3;2;2
24012;PMS7003;12220;50.194;18.948;2023-03-15T13:49:46;3;3;3
24012;PMS7003;12220;50.194;18.948;2023-03-15T13:51:52;4;4;3
24012;PMS7003;12220;50.194;18.948;2023-03-15T13:53:55;3;3;3
24012;PMS7003;12220;50.194;18.948;2023-03-15T13:56:05;2;2;2
24012;PMS7003;12220;50.194;18.948;2023-03-15T13:58:18;3;3;3
24012;PMS7003;12220;50.194;18.948;2023-03-15T14:00:24;4;4;3
24012;PMS7003;12220;50.194;18.948;2023-03-15T14:02:34;3;3;3
24012;PMS7003;12220;50.194;18.948;2023-03-15T14:04:49;0;0;0
24012;PMS7003;12220;50.194;18.948;2023-03-15T14:07:15;1;1;1
24012;PMS7003;12220;50.194;18.948;2023-03-15T14:09:09;3;3;3
24012;PMS7003;12220;50.194;18.948;2023-03-15T14:16:03;1;1;1
24012;PMS7003;12220;50.194;18.948;2023-03-15T14:20:18;2;2;2
24012;PMS7003;12220;50.194;18.948;2023-03-15T14:22:20;1;1;1
24012;PMS7003;12220;50.194;18.948;2023-03-15T14:26:48;5;3;2
24012;PMS7003;12220;50.194;18.948;2023-03-15T14:28:59;2;2;1
24012;PMS7003;12220;50.194;18.948;2023-03-15T14:31:11;5;1;1
24012;PMS7003;12220;50.194;18.948;2023-03-15T14:35:40;1;1;1
24012;PMS7003;12220;50.194;18.948;2023-03-15T14:37:45;4;2;1
24012;PMS7003;12220;50.194;18.948;2023-03-15T14:42:19;2;1;1
24012;PMS7003;12220;50.194;18.948;2023-03-15T14:44:20;2;2;1
24012;PMS7003;12220;50.194;18.948;2023-03-15T14:46:22;2;0;0
24012;PMS7003;12220;50.194;18.948;2023-03-15T14:48:27;3;3;3
24012;PMS7003;12220;50.194;18.948;2023-03-15T14:50:38;1;1;1
24012;PMS7003;12220;50.194;18.948;2023-03-15T14:52:42;1;1;1
24012;PMS7003;12220;50.194;18.948;2023-03-15T14:54:45;1;1;1
24012;PMS7003;12220;50.194;18.948;2023-03-15T14:56:50;2;2;2
24012;PMS7003;12220;50.194;18.948;2023-03-15T14:58:52;1;1;1
24012;PMS7003;12220;50.194;18.948;2023-03-15T15:00:56;1;1;1
24012;PMS7003;12220;50.194;18.948;2023-03-15T15:02:58;0;0;0
24012;PMS7003;12220;50.194;18.948;2023-03-15T15:05:01;1;1;1
24012;PMS7003;12220;50.194;18.948;2023-03-15T15:07:05;0;0;0